Time;durP1;ratioP1;P1;durP2;ratioP2;P2;SDS_P1;SDS_P2;PMS_P1;PMS_P2;Temp;Humidity;BMP_temperature;BMP_pressure;BME280_temperature;BME280_humidity;BME280_pressure;Samples;Min_cycle;Max_cycle;Signal;HPM_P1;HPM_P2
2021/12/20 00:01:00;;;;;;;2.35;2.25;;;17.80;62.00;;;;;;5029111;28;20029;-29
2021/12/20 00:03:26;;;;;;;2.75;2.55;;;17.70;62.90;;;;;;5028995;28;20024;-28
2021/12/20 00:05:51;;;;;;;2.33;2.22;;;17.70;62.20;;;;;;5018122;28;20026;-27
2021/12/20 00:08:17;;;;;;;2.40;2.20;;;17.70;62.80;;;;;;5029890;28;20475;-26
2021/12/20 00:10:43;;;;;;;2.35;2.25;;;17.70;62.00;;;;;;5037737;28;20421;-29
2021/12/20 00:13:08;;;;;;;2.72;2.63;;;17.70;62.10;;;;;;5037962;28;20037;-30
2021/12/20 00:15:34;;;;;;;2.00;1.90;;;17.70;62.10;;;;;;5037828;28;20492;-30
2021/12/20 00:18:00;;;;;;;2.20;2.10;;;17.70;62.20;;;;;;5037792;28;20029;-28
2021/12/20 00:20:25;;;;;;;1.77;1.67;;;17.60;62.20;;;;;;5037634;28;20033;-25
2021/12/20 00:22:51;;;;;;;1.85;1.75;;;17.60;62.30;;;;;;5037087;28;20053;-26
2021/12/20 00:25:17;;;;;;;3.30;2.08;;;17.60;62.30;;;;;;5037842;28;20109;-28
2021/12/20 00:27:42;;;;;;;2.15;2.05;;;17.60;62.10;;;;;;5037317;28;20059;-23
2021/12/20 00:30:09;;;;;;;2.03;1.92;;;17.60;62.10;;;;;;5037668;28;20037;-26
2021/12/20 00:32:34;;;;;;;1.95;1.85;;;17.60;62.00;;;;;;5037032;28;20025;-25
2021/12/20 00:35:00;;;;;;;1.88;1.77;;;17.60;62.10;;;;;;5037321;28;20363;-29
2021/12/20 00:40:19;;;;;;;2.00;1.90;;;17.60;62.10;;;;;;5037072;28;20032;-26
2021/12/20 00:42:45;;;;;;;1.90;1.80;;;17.60;62.20;;;;;;5037146;28;20045;-29
2021/12/20 00:45:11;;;;;;;2.00;1.90;;;17.50;62.20;;;;;;5037335;28;20035;-30
2021/12/20 00:47:37;;;;;;;2.10;2.00;;;17.50;62.10;;;;;;5036535;28;20033;-27
2021/12/20 00:50:04;;;;;;;1.80;1.70;;;17.50;62.00;;;;;;5036550;28;20104;-26
2021/12/20 00:52:30;;;;;;;1.80;1.70;;;17.50;62.10;;;;;;5036921;28;20025;-25
2021/12/20 00:54:55;;;;;;;1.70;1.60;;;17.50;62.00;;;;;;5037079;28;20021;-32
2021/12/20 00:57:21;;;;;;;1.70;1.60;;;17.50;62.00;;;;;;5037128;28;20018;-31
2021/12/20 00:59:46;;;;;;;1.58;1.48;;;17.60;61.90;;;;;;5036920;28;20071;-29
2021/12/20 01:02:12;;;;;;;1.50;1.40;;;17.50;61.90;;;;;;5036936;28;20033;-32
2021/12/20 01:04:38;;;;;;;1.40;1.30;;;17.50;61.90;;;;;;5036218;28;20037;-28
2021/12/20 01:07:03;;;;;;;1.92;1.83;;;17.50;61.70;;;;;;5035532;28;20029;-26
2021/12/20 01:09:29;;;;;;;1.83;1.73;;;17.50;61.80;;;;;;5036803;28;20067;-27
2021/12/20 01:12:01;;;;;;;1.75;1.65;;;17.50;61.80;;;;;;5036875;28;20026;-26
2021/12/20 01:14:28;;;;;;;2.00;1.40;;;17.60;61.80;;;;;;5036511;28;20677;-23
2021/12/20 01:16:56;;;;;;;1.98;1.88;;;17.60;61.60;;;;;;5036693;28;20045;-26
2021/12/20 01:19:22;;;;;;;1.42;1.33;;;17.50;61.60;;;;;;5036492;28;20041;-28
2021/12/20 01:21:48;;;;;;;1.70;1.60;;;17.50;61.70;;;;;;5036761;28;20087;-28
2021/12/20 01:24:13;;;;;;;1.70;1.60;;;17.50;61.70;;;;;;5036700;28;20030;-26
2021/12/20 01:26:39;;;;;;;1.77;1.67;;;17.50;61.70;;;;;;5036685;28;20026;-27
2021/12/20 01:29:04;;;;;;;1.42;1.38;;;17.50;61.70;;;;;;5036034;28;20030;-24
2021/12/20 01:31:30;;;;;;;1.60;1.50;;;17.50;61.50;;;;;;5036453;28;20426;-28
2021/12/20 01:33:56;;;;;;;1.33;1.25;;;17.50;61.50;;;;;;5036659;28;20026;-30
2021/12/20 01:36:21;;;;;;;1.10;1.10;;;17.50;61.50;;;;;;5035734;28;20048;-25
2021/12/20 01:38:47;;;;;;;1.40;1.30;;;17.50;61.30;;;;;;5036330;28;20029;-26
2021/12/20 01:41:13;;;;;;;1.10;1.10;;;17.50;61.40;;;;;;5036485;28;20026;-30
2021/12/20 01:43:39;;;;;;;1.40;1.40;;;17.50;61.30;;;;;;5036147;28;20548;-27
2021/12/20 01:46:05;;;;;;;1.20;1.20;;;17.50;61.20;;;;;;5036419;28;20021;-28
2021/12/20 01:48:31;;;;;;;1.50;1.40;;;17.50;61.30;;;;;;5036097;28;20029;-32
2021/12/20 01:53:35;;;;;;;1.42;1.33;;;17.50;61.30;;;;;;5023195;28;20114;-32
2021/12/20 01:56:01;;;;;;;1.50;1.42;;;17.50;61.30;;;;;;5020867;28;20479;-31
2021/12/20 01:58:27;;;;;;;1.40;1.30;;;17.40;61.40;;;;;;5021300;28;20092;-34
2021/12/20 02:01:01;;;;;;;1.20;1.20;;;17.40;61.40;;;;;;5039781;28;20101;-28
2021/12/20 02:03:27;;;;;;;1.40;1.40;;;17.50;61.40;;;;;;5039863;28;20474;-27
2021/12/20 02:05:56;;;;;;;1.10;1.10;;;17.40;61.40;;;;;;5038981;28;20132;-25
2021/12/20 02:08:24;;;;;;;1.40;1.30;;;17.40;61.30;;;;;;5020150;28;20029;-29
2021/12/20 02:10:53;;;;;;;1.17;1.17;;;17.50;61.20;;;;;;5019975;28;20030;-29
2021/12/20 02:13:19;;;;;;;1.38;1.38;;;17.40;61.20;;;;;;5020557;28;20502;-27
2021/12/20 02:15:45;;;;;;;1.50;1.40;;;17.40;61.30;;;;;;5020226;28;20038;-28
2021/12/20 02:18:10;;;;;;;1.23;1.20;;;17.40;61.50;;;;;;5020179;28;20089;-28
2021/12/20 02:20:36;;;;;;;1.45;1.35;;;17.30;61.50;;;;;;5020535;28;20084;-28
2021/12/20 02:23:02;;;;;;;1.40;1.30;;;17.30;61.60;;;;;;5039746;28;20036;-31
2021/12/20 02:25:28;;;;;;;1.40;1.30;;;17.30;62.30;;;;;;5039843;28;20105;-28
2021/12/20 02:27:54;;;;;;;1.67;1.58;;;17.30;61.60;;;;;;5039293;28;20030;-29
2021/12/20 02:38:27;;;;;;;1.23;1.13;;;17.40;61.10;;;;;;5039173;28;20386;-27
2021/12/20 02:40:57;;;;;;;1.33;1.23;;;17.40;61.10;;;;;;5039085;28;20036;-28
2021/12/20 02:43:23;;;;;;;1.60;1.50;;;17.40;61.20;;;;;;5032731;28;20483;-25
2021/12/20 02:45:49;;;;;;;1.48;1.35;;;17.40;61.10;;;;;;5037171;28;20182;-24
2021/12/20 02:48:15;;;;;;;1.30;1.20;;;17.40;61.00;;;;;;5038965;28;20026;-25
2021/12/20 02:50:40;;;;;;;1.23;1.23;;;17.30;61.00;;;;;;5038973;28;20175;-31
2021/12/20 02:53:06;;;;;;;1.10;1.10;;;17.30;61.10;;;;;;5038894;28;20025;-23
2021/12/20 02:55:31;;;;;;;1.30;1.17;;;17.30;61.20;;;;;;5039317;28;20026;-25
2021/12/20 02:57:57;;;;;;;1.20;1.20;;;17.30;61.30;;;;;;5039325;28;20080;-25
2021/12/20 03:00:23;;;;;;;1.40;1.30;;;17.30;61.30;;;;;;5022758;28;20022;-27
2021/12/20 03:02:48;;;;;;;1.48;1.38;;;17.20;61.40;;;;;;5019473;28;20430;-25
2021/12/20 03:05:14;;;;;;;1.48;1.38;;;17.30;61.20;;;;;;5018961;28;20033;-30
2021/12/20 03:07:51;;;;;;;2.00;1.10;;;17.30;61.10;;;;;;5026911;28;20838;-29
2021/12/20 03:10:17;;;;;;;1.13;1.10;;;17.30;61.00;;;;;;5039084;28;20100;-24
2021/12/20 03:12:42;;;;;;;2.17;1.27;;;17.30;60.90;;;;;;5038508;28;20033;-29
2021/12/20 03:15:16;;;;;;;1.23;1.13;;;17.30;60.90;;;;;;5038988;28;20029;-26
2021/12/20 03:17:42;;;;;;;1.13;1.13;;;17.30;61.00;;;;;;5039017;28;20056;-24
2021/12/20 03:20:07;;;;;;;1.13;1.02;;;17.30;61.00;;;;;;5038836;28;20433;-29
2021/12/20 03:22:33;;;;;;;1.20;1.10;;;17.20;61.10;;;;;;5038629;28;20095;-28
2021/12/20 03:24:59;;;;;;;0.80;0.80;;;17.30;61.10;;;;;;5038806;28;20063;-24
2021/12/20 03:27:24;;;;;;;1.73;1.13;;;17.30;61.10;;;;;;5038177;28;20021;-32
2021/12/20 03:29:50;;;;;;;1.30;1.20;;;17.30;60.90;;;;;;5038590;28;20037;-26
2021/12/20 03:32:15;;;;;;;1.70;1.00;;;17.30;60.90;;;;;;5038588;28;20028;-32
2021/12/20 03:34:41;;;;;;;1.08;1.08;;;17.30;60.90;;;;;;5037728;28;20437;-23
2021/12/20 03:37:07;;;;;;;0.90;0.90;;;17.20;60.90;;;;;;5038367;28;20577;-27
2021/12/20 03:39:32;;;;;;;1.00;1.00;;;17.30;61.00;;;;;;5038509;28;20026;-26
2021/12/20 03:41:59;;;;;;;0.88;0.88;;;17.20;61.00;;;;;;5038518;28;20025;-29
2021/12/20 03:44:24;;;;;;;0.88;0.82;;;17.20;61.00;;;;;;5038395;28;20064;-30
2021/12/20 03:46:50;;;;;;;0.90;0.90;;;17.20;60.90;;;;;;5038467;28;20025;-26
2021/12/20 03:49:15;;;;;;;1.00;1.00;;;17.30;60.90;;;;;;5037647;28;20050;-24
2021/12/20 03:51:42;;;;;;;0.85;0.85;;;17.20;60.90;;;;;;5037949;28;20025;-27
2021/12/20 03:54:08;;;;;;;1.00;1.00;;;17.20;60.90;;;;;;5038423;28;20025;-26
2021/12/20 03:56:33;;;;;;;0.90;0.90;;;17.20;60.90;;;;;;5038212;28;20033;-29
2021/12/20 03:58:59;;;;;;;0.88;0.88;;;17.20;60.90;;;;;;5038110;28;20048;-25
2021/12/20 04:01:25;;;;;;;0.80;0.80;;;17.20;60.90;;;;;;5038179;28;20587;-29
2021/12/20 04:03:51;;;;;;;1.00;0.98;;;17.20;60.90;;;;;;5037493;28;20167;-28
2021/12/20 04:06:17;;;;;;;0.90;0.90;;;17.20;60.90;;;;;;5037747;28;20060;-25
2021/12/20 04:08:42;;;;;;;0.73;0.73;;;17.20;60.90;;;;;;5037578;28;20025;-28
2021/12/20 04:11:08;;;;;;;0.80;0.80;;;17.20;60.90;;;;;;5037889;28;20029;-30
2021/12/20 04:13:34;;;;;;;0.90;0.90;;;17.20;60.90;;;;;;5037866;28;20850;-34
2021/12/20 04:15:59;;;;;;;0.80;0.80;;;17.20;60.90;;;;;;5027402;28;20068;-30
2021/12/20 04:18:25;;;;;;;0.90;0.90;;;17.10;60.90;;;;;;5036827;28;20368;-29
2021/12/20 04:20:51;;;;;;;0.75;0.75;;;17.10;61.00;;;;;;5037388;28;20446;-31
2021/12/20 04:23:17;;;;;;;0.77;0.77;;;17.20;60.90;;;;;;5037308;28;20030;-24
2021/12/20 04:25:42;;;;;;;0.65;0.65;;;17.20;60.90;;;;;;5037828;28;20021;-23
2021/12/20 04:28:08;;;;;;;1.00;1.00;;;17.10;60.80;;;;;;5037564;28;20085;-28
2021/12/20 04:30:34;;;;;;;0.90;0.90;;;17.10;60.80;;;;;;5037550;28;20038;-30
2021/12/20 04:32:59;;;;;;;0.50;0.50;;;17.20;60.90;;;;;;5037452;28;20026;-29
2021/12/20 04:35:25;;;;;;;0.75;0.75;;;17.10;60.80;;;;;;5037351;28;20048;-30
2021/12/20 04:37:51;;;;;;;0.80;0.80;;;17.10;60.90;;;;;;5036098;28;20029;-26
2021/12/20 04:40:19;;;;;;;0.70;0.70;;;17.10;60.80;;;;;;5017823;28;20022;-26
2021/12/20 04:42:46;;;;;;;0.80;0.80;;;17.10;60.80;;;;;;5024679;28;20524;-30
2021/12/20 04:45:12;;;;;;;0.70;0.70;;;17.10;60.80;;;;;;5036431;28;20045;-27
2021/12/20 04:47:38;;;;;;;0.70;0.70;;;17.10;60.80;;;;;;5036771;28;20029;-29
2021/12/20 04:50:04;;;;;;;1.52;0.88;;;17.10;60.70;;;;;;5036290;28;20099;-28
2021/12/20 04:52:29;;;;;;;0.73;0.73;;;17.10;61.60;;;;;;5036296;28;20037;-26
2021/12/20 04:54:55;;;;;;;0.50;0.50;;;17.10;60.90;;;;;;5035865;28;20030;-24
2021/12/20 04:57:21;;;;;;;0.73;0.73;;;17.10;60.90;;;;;;5036565;28;20156;-23
2021/12/20 04:59:46;;;;;;;0.80;0.80;;;17.10;60.90;;;;;;5031697;28;20486;-28
2021/12/20 05:02:12;;;;;;;0.80;0.80;;;17.10;60.80;;;;;;5036169;28;20057;-28
2021/12/20 05:04:37;;;;;;;0.93;0.93;;;17.00;60.90;;;;;;5036260;28;20042;-30
2021/12/20 05:07:03;;;;;;;0.88;0.88;;;17.00;61.00;;;;;;5035582;28;20025;-33
2021/12/20 05:09:36;;;;;;;0.98;0.98;;;17.00;60.90;;;;;;5036009;28;20121;-26
2021/12/20 05:12:10;;;;;;;0.93;0.93;;;17.00;61.00;;;;;;5036052;28;20042;-28
2021/12/20 05:14:36;;;;;;;1.63;0.73;;;17.00;61.00;;;;;;5035828;28;20025;-26
2021/12/20 05:17:02;;;;;;;1.00;1.00;;;17.00;61.10;;;;;;5036332;28;20033;-26
2021/12/20 05:19:28;;;;;;;0.60;0.60;;;17.00;61.10;;;;;;5035682;28;20034;-28
2021/12/20 05:21:53;;;;;;;0.73;0.55;;;17.00;61.00;;;;;;5035902;28;20048;-31
2021/12/20 05:24:19;;;;;;;0.60;0.60;;;17.00;61.00;;;;;;5036023;28;20079;-31
2021/12/20 05:26:45;;;;;;;0.80;0.80;;;17.00;61.00;;;;;;5035787;28;20057;-26
2021/12/20 05:29:10;;;;;;;0.75;0.75;;;17.00;61.00;;;;;;5028060;28;20511;-23
2021/12/20 05:31:36;;;;;;;0.77;0.70;;;17.00;60.90;;;;;;5035876;28;20414;-29
2021/12/20 05:34:02;;;;;;;0.52;0.52;;;17.00;60.90;;;;;;5035583;28;20449;-26
2021/12/20 05:36:27;;;;;;;0.70;0.70;;;17.00;61.00;;;;;;5035449;28;20029;-23
2021/12/20 05:38:53;;;;;;;0.63;0.63;;;17.00;60.90;;;;;;5035811;28;20024;-27
2021/12/20 05:41:18;;;;;;;0.60;0.60;;;17.00;61.00;;;;;;5035913;28;20052;-26
2021/12/20 05:43:45;;;;;;;0.65;0.65;;;17.00;61.00;;;;;;5035881;28;20025;-25
2021/12/20 05:46:11;;;;;;;0.50;0.50;;;17.00;61.00;;;;;;5035866;28;20038;-29
2021/12/20 05:48:36;;;;;;;0.45;0.45;;;17.00;61.00;;;;;;5035312;28;20052;-27
2021/12/20 05:51:02;;;;;;;0.55;0.55;;;17.00;61.00;;;;;;5035320;28;20517;-27
2021/12/20 05:53:27;;;;;;;0.52;0.52;;;17.00;61.00;;;;;;5035421;28;20021;-28
2021/12/20 05:55:53;;;;;;;0.55;0.55;;;17.00;61.00;;;;;;5035828;28;20084;-27
2021/12/20 05:58:18;;;;;;;0.50;0.50;;;17.00;61.20;;;;;;5035549;28;20826;-25
2021/12/20 06:00:44;;;;;;;0.57;0.57;;;16.90;61.00;;;;;;5032677;28;20037;-26
2021/12/20 06:03:10;;;;;;;0.50;0.50;;;16.90;61.00;;;;;;5035437;28;20036;-30
2021/12/20 06:05:38;;;;;;;0.50;0.50;;;16.90;61.10;;;;;;5035253;28;20029;-28
2021/12/20 06:08:04;;;;;;;0.52;0.52;;;16.90;61.10;;;;;;5032015;28;20395;-26
2021/12/20 06:10:29;;;;;;;0.38;0.38;;;17.00;61.10;;;;;;5028612;28;20033;-31
2021/12/20 06:12:55;;;;;;;0.65;0.65;;;16.90;61.00;;;;;;5035483;28;20029;-24
2021/12/20 06:15:20;;;;;;;0.60;0.60;;;17.00;61.20;;;;;;5035587;28;20025;-29
2021/12/20 06:17:46;;;;;;;0.55;0.55;;;16.90;61.10;;;;;;5035627;28;20441;-28
2021/12/20 06:20:12;;;;;;;0.40;0.40;;;17.00;61.10;;;;;;5035173;28;20033;-27
2021/12/20 06:22:38;;;;;;;0.50;0.50;;;17.00;61.00;;;;;;5035007;28;20402;-29
2021/12/20 06:25:04;;;;;;;0.40;0.40;;;17.00;61.00;;;;;;5035164;28;20892;-28
2021/12/20 06:27:30;;;;;;;0.40;0.40;;;17.00;61.00;;;;;;5034241;28;20513;-29
2021/12/20 06:29:55;;;;;;;0.50;0.50;;;17.00;61.00;;;;;;5034970;28;20029;-30
2021/12/20 06:32:21;;;;;;;0.50;0.50;;;17.00;61.00;;;;;;5029959;28;20022;-32
2021/12/20 06:34:46;;;;;;;0.70;0.70;;;17.00;61.00;;;;;;5033912;28;20022;-29
2021/12/20 06:37:12;;;;;;;0.60;0.60;;;17.00;61.00;;;;;;5034283;28;20026;-31
2021/12/20 06:39:38;;;;;;;0.50;0.50;;;16.90;61.00;;;;;;5026933;28;20029;-31
2021/12/20 06:42:04;;;;;;;0.40;0.40;;;16.90;61.40;;;;;;5043001;28;20042;-29
2021/12/20 06:44:29;;;;;;;0.50;0.50;;;16.90;61.00;;;;;;5035936;28;20045;-27
2021/12/20 06:46:55;;;;;;;0.90;0.77;;;16.90;61.20;;;;;;5036449;28;20064;-26
2021/12/20 06:49:21;;;;;;;1.60;1.50;;;16.90;60.90;;;;;;5035954;28;20050;-29
2021/12/20 06:51:47;;;;;;;0.70;0.70;;;17.00;60.80;;;;;;5044840;28;20046;-28
2021/12/20 06:54:14;;;;;;;1.15;1.05;;;17.00;60.70;;;;;;5036937;28;20073;-27
2021/12/20 06:56:39;;;;;;;1.40;1.27;;;17.00;60.90;;;;;;5055893;28;20095;-28
2021/12/20 06:59:05;;;;;;;1.58;1.08;;;16.90;60.90;;;;;;5056732;28;20044;-26
2021/12/20 07:01:31;;;;;;;1.42;1.33;;;16.90;60.80;;;;;;5056211;28;20048;-27
2021/12/20 07:03:56;;;;;;;1.85;1.67;;;17.00;60.90;;;;;;5056208;28;20071;-24
2021/12/20 07:06:22;;;;;;;2.03;1.40;;;17.00;61.20;;;;;;5055683;28;20063;-29
2021/12/20 07:08:48;;;;;;;1.33;1.20;;;17.00;61.20;;;;;;5055893;28;20127;-27
2021/12/20 07:11:14;;;;;;;1.60;1.30;;;17.00;61.40;;;;;;5055826;28;20043;-28
2021/12/20 07:13:40;;;;;;;1.60;1.50;;;17.10;61.50;;;;;;5055146;28;20052;-27
2021/12/20 07:16:06;;;;;;;1.73;1.20;;;17.10;61.50;;;;;;5056393;28;20128;-31
2021/12/20 07:18:32;;;;;;;1.40;1.30;;;17.00;61.70;;;;;;5055641;28;20467;-28
2021/12/20 07:20:57;;;;;;;1.20;1.05;;;17.00;62.00;;;;;;5071379;28;20041;-30
2021/12/20 07:23:23;;;;;;;1.02;1.00;;;17.10;62.00;;;;;;5045195;28;20040;-28
2021/12/20 07:25:49;;;;;;;1.10;1.10;;;17.10;62.30;;;;;;5049699;28;20029;-23
2021/12/20 07:28:15;;;;;;;1.15;1.15;;;17.10;62.50;;;;;;5071425;28;20045;-25
2021/12/20 07:30:41;;;;;;;1.23;1.00;;;17.10;62.60;;;;;;5055682;28;20044;-30
2021/12/20 07:33:07;;;;;;;0.90;0.90;;;17.10;62.80;;;;;;5055328;28;20122;-27
2021/12/20 07:35:33;;;;;;;1.15;1.15;;;17.10;62.90;;;;;;5054612;28;20044;-24
2021/12/20 07:38:00;;;;;;;1.30;0.95;;;17.10;62.90;;;;;;5055846;28;20051;-30
2021/12/20 07:40:26;;;;;;;1.25;1.25;;;17.10;63.00;;;;;;5045654;28;20052;-24
2021/12/20 07:42:52;;;;;;;0.90;0.90;;;17.10;63.00;;;;;;5055632;28;20053;-27
2021/12/20 07:45:17;;;;;;;1.00;1.00;;;17.10;63.20;;;;;;5055042;28;20178;-33
2021/12/20 07:47:43;;;;;;;1.23;1.23;;;17.10;63.30;;;;;;5055924;28;20578;-24
2021/12/20 07:50:09;;;;;;;1.00;1.00;;;17.10;63.40;;;;;;5054046;28;20136;-28
2021/12/20 07:52:34;;;;;;;1.05;1.05;;;17.10;63.40;;;;;;5050151;28;20052;-26
2021/12/20 07:55:00;;;;;;;0.80;0.80;;;17.10;63.50;;;;;;5056632;28;20494;-31
2021/12/20 07:57:26;;;;;;;0.80;0.80;;;17.10;63.50;;;;;;5057489;28;20524;-30
2021/12/20 07:59:52;;;;;;;0.90;0.90;;;17.10;63.50;;;;;;5055242;28;20850;-33
2021/12/20 08:02:17;;;;;;;1.58;1.48;;;17.10;63.40;;;;;;5054954;28;20110;-27
2021/12/20 08:04:48;;;;;;;2.67;2.47;;;17.10;63.70;;;;;;5041874;28;20054;-28
2021/12/20 08:07:14;;;;;;;3.58;3.25;;;17.10;63.40;;;;;;5035086;28;20128;-32
2021/12/20 08:09:39;;;;;;;4.40;3.80;;;17.20;63.60;;;;;;5041497;28;20076;-25
2021/12/20 08:12:06;;;;;;;5.10;4.60;;;17.20;63.30;;;;;;5033372;28;20056;-29
2021/12/20 08:14:31;;;;;;;4.85;4.00;;;17.10;63.50;;;;;;5033418;28;20045;-27
2021/12/20 08:16:57;;;;;;;4.28;3.97;;;17.10;63.70;;;;;;5035339;28;20555;-27
2021/12/20 08:19:23;;;;;;;4.50;4.15;;;17.10;63.90;;;;;;5028551;28;20049;-30
2021/12/20 08:21:48;;;;;;;4.88;4.38;;;17.10;64.00;;;;;;5043191;28;20041;-29
2021/12/20 08:24:14;;;;;;;4.50;4.10;;;17.10;64.20;;;;;;5042474;28;20537;-29
2021/12/20 08:26:39;;;;;;;4.30;3.90;;;17.10;64.20;;;;;;5043357;28;20068;-29
2021/12/20 08:29:05;;;;;;;4.05;3.65;;;17.10;64.30;;;;;;5042819;28;20437;-26
2021/12/20 08:31:30;;;;;;;4.10;3.67;;;17.10;64.50;;;;;;5035328;28;20156;-26
2021/12/20 08:33:56;;;;;;;4.30;3.90;;;17.10;64.20;;;;;;5028567;28;20038;-33
2021/12/20 08:36:22;;;;;;;3.65;3.35;;;17.10;64.10;;;;;;5028722;28;20045;-29
2021/12/20 08:38:47;;;;;;;4.45;4.05;;;17.10;64.30;;;;;;5039367;28;20041;-25
2021/12/20 08:41:13;;;;;;;5.05;4.10;;;17.10;64.30;;;;;;5043379;28;20063;-27
2021/12/20 08:43:39;;;;;;;4.20;3.80;;;17.10;64.50;;;;;;5034548;28;20045;-26
2021/12/20 08:46:05;;;;;;;4.00;3.70;;;17.10;64.50;;;;;;5034745;28;20045;-26
2021/12/20 08:48:31;;;;;;;7.15;4.35;;;17.10;64.50;;;;;;5033706;28;20049;-29
2021/12/20 08:50:58;;;;;;;5.15;3.95;;;17.10;64.70;;;;;;5034469;28;20054;-26
2021/12/20 08:53:23;;;;;;;4.28;3.88;;;17.20;64.40;;;;;;5034363;28;20433;-25
2021/12/20 08:55:49;;;;;;;4.18;3.78;;;17.10;64.30;;;;;;5043144;28;20064;-25
2021/12/20 08:58:15;;;;;;;3.88;3.47;;;17.10;64.10;;;;;;5034455;28;20050;-28
2021/12/20 09:00:40;;;;;;;4.88;3.80;;;17.10;64.10;;;;;;5026958;28;20115;-28
2021/12/20 09:03:06;;;;;;;3.97;3.67;;;17.10;64.20;;;;;;5052738;28;20041;-25
2021/12/20 09:05:32;;;;;;;4.82;3.83;;;17.10;64.40;;;;;;5032198;28;20072;-27
2021/12/20 09:08:00;;;;;;;4.40;3.95;;;17.10;64.50;;;;;;5066838;28;20048;-29
2021/12/20 09:10:26;;;;;;;4.90;3.67;;;17.10;64.60;;;;;;5042594;28;20048;-32
2021/12/20 09:12:52;;;;;;;4.70;4.25;;;17.10;64.90;;;;;;5034830;28;20706;-26
2021/12/20 09:15:18;;;;;;;4.15;3.80;;;17.20;65.00;;;;;;5035580;28;20517;-32
2021/12/20 09:17:48;;;;;;;3.95;3.65;;;17.20;65.40;;;;;;5032338;28;20572;-25
2021/12/20 09:20:15;;;;;;;3.87;3.57;;;17.20;65.20;;;;;;4670425;28;9999668;-26
2021/12/20 09:22:50;;;;;;;4.45;3.55;;;17.30;65.80;;;;;;5046740;28;20055;-28
2021/12/20 09:25:21;;;;;;;3.53;3.22;;;17.30;65.90;;;;;;5053887;28;20578;-27
2021/12/20 09:27:47;;;;;;;3.78;2.95;;;17.40;66.40;;;;;;5049450;28;20135;-28
2021/12/20 09:30:13;;;;;;;2.30;2.10;;;17.40;68.90;;;;;;5051498;28;20079;-26
2021/12/20 09:32:38;;;;;;;5.47;2.45;;;17.40;68.50;;;;;;5050126;28;20155;-28
2021/12/20 09:35:04;;;;;;;3.85;2.95;;;17.50;69.10;;;;;;5048808;28;20071;-24
2021/12/20 09:37:30;;;;;;;5.30;2.30;;;17.50;67.40;;;;;;5049555;28;20136;-29
2021/12/20 09:39:55;;;;;;;2.65;2.17;;;17.50;67.70;;;;;;5051257;28;20037;-33
2021/12/20 09:42:21;;;;;;;2.40;2.28;;;17.50;67.80;;;;;;5049929;28;21336;-27
2021/12/20 09:44:47;;;;;;;3.85;2.15;;;17.50;68.50;;;;;;5029616;28;20049;-28
2021/12/20 09:47:13;;;;;;;3.60;3.30;;;17.50;68.20;;;;;;5046510;28;20053;-28
2021/12/20 09:49:38;;;;;;;9.25;3.72;;;17.60;67.90;;;;;;5045626;28;20099;-29
2021/12/20 09:52:04;;;;;;;8.73;4.72;;;17.60;67.80;;;;;;5031225;28;20052;-26
2021/12/20 09:54:30;;;;;;;5.60;4.70;;;17.60;67.40;;;;;;5024256;28;21890;-28
2021/12/20 09:56:57;;;;;;;7.88;5.43;;;17.60;67.70;;;;;;5029542;28;20057;-28
2021/12/20 09:59:24;;;;;;;6.78;6.05;;;17.60;67.30;;;;;;5030012;28;20459;-27
2021/12/20 10:01:51;;;;;;;9.38;6.55;;;17.60;67.10;;;;;;5045550;28;20126;-26
2021/12/20 10:04:17;;;;;;;8.77;6.07;;;17.60;67.40;;;;;;5031181;28;20128;-29
2021/12/20 10:06:43;;;;;;;9.00;6.30;;;17.60;67.30;;;;;;5030100;28;20116;-28
2021/12/20 10:09:16;;;;;;;9.32;6.40;;;17.60;67.40;;;;;;5030543;28;20517;-27
2021/12/20 10:11:43;;;;;;;9.63;6.15;;;17.60;67.30;;;;;;5027412;28;20077;-30
2021/12/20 10:14:09;;;;;;;8.95;5.22;;;17.60;66.90;;;;;;5019385;28;20069;-31
2021/12/20 10:16:36;;;;;;;10.10;5.97;;;17.60;67.30;;;;;;5032507;28;20045;-30
2021/12/20 10:19:03;;;;;;;9.40;5.55;;;17.60;67.30;;;;;;5034183;28;20041;-27
2021/12/20 10:21:41;;;;;;;10.75;6.63;;;17.70;66.70;;;;;;5033598;28;20057;-25
2021/12/20 10:24:07;;;;;;;11.35;6.00;;;17.70;66.50;;;;;;5034375;28;20049;-29
2021/12/20 10:26:42;;;;;;;13.82;6.20;;;17.70;66.90;;;;;;5033560;28;20414;-34
2021/12/20 10:29:18;;;;;;;7.75;5.40;;;17.70;66.90;;;;;;5034160;28;20049;-31
2021/12/20 10:31:44;;;;;;;10.38;6.00;;;17.70;67.00;;;;;;5033378;28;20045;-23
2021/12/20 10:34:10;;;;;;;7.07;5.32;;;17.70;66.80;;;;;;5033435;28;20576;-29
2021/12/20 10:36:36;;;;;;;8.40;6.10;;;17.70;66.90;;;;;;5033473;28;20099;-30
2021/12/20 10:39:03;;;;;;;7.80;5.50;;;17.70;66.90;;;;;;5034319;28;20072;-31
2021/12/20 10:41:35;;;;;;;11.48;6.00;;;17.80;66.90;;;;;;5034037;28;20530;-29
2021/12/20 10:44:17;;;;;;;9.35;6.05;;;17.70;66.60;;;;;;5020399;28;20045;-29
2021/12/20 10:46:47;;;;;;;14.95;6.75;;;17.80;66.60;;;;;;5025466;28;20438;-30
2021/12/20 10:49:14;;;;;;;7.53;5.47;;;17.80;66.20;;;;;;5033388;28;20041;-31
2021/12/20 10:51:59;;;;;;;10.68;5.97;;;17.80;66.50;;;;;;5032561;28;20060;-27
2021/12/20 10:54:30;;;;;;;15.05;5.28;;;17.80;66.30;;;;;;5028472;28;20041;-27
2021/12/20 10:57:05;;;;;;;9.68;5.85;;;17.90;66.10;;;;;;5032247;28;20045;-34
2021/12/20 10:59:35;;;;;;;11.85;5.75;;;17.90;66.00;;;;;;5030860;28;20092;-27
2021/12/20 11:04:56;;;;;;;9.40;5.22;;;17.80;66.30;;;;;;5016973;28;20048;-31
2021/12/20 11:09:50;;;;;;;10.23;5.22;;;17.80;66.30;;;;;;5028905;28;20448;-26
2021/12/20 11:12:26;;;;;;;6.78;4.20;;;17.90;66.10;;;;;;5026596;28;20056;-28
2021/12/20 11:14:56;;;;;;;8.73;4.88;;;17.90;66.20;;;;;;5037132;28;20414;-25
2021/12/20 11:17:22;;;;;;;6.65;4.65;;;17.90;66.10;;;;;;5037154;28;20514;-24
2021/12/20 11:19:51;;;;;;;5.78;4.72;;;17.90;66.20;;;;;;5034962;28;20111;-35
2021/12/20 11:22:24;;;;;;;6.38;4.38;;;17.90;66.10;;;;;;5026343;28;20092;-23
2021/12/20 11:25:08;;;;;;;9.63;4.45;;;17.80;66.30;;;;;;5032249;28;20477;-23
2021/12/20 11:27:39;;;;;;;6.10;4.63;;;17.90;66.10;;;;;;5027931;28;20057;-27
2021/12/20 11:30:13;;;;;;;6.60;4.28;;;17.90;65.90;;;;;;5043801;28;20132;-23
2021/12/20 11:32:39;;;;;;;9.00;4.40;;;17.90;65.90;;;;;;5031622;28;20049;-30
2021/12/20 11:35:05;;;;;;;6.13;4.53;;;17.80;66.00;;;;;;5034681;28;20045;-24
2021/12/20 11:37:31;;;;;;;11.45;5.78;;;17.80;65.50;;;;;;5025996;28;20416;-28
2021/12/20 11:39:58;;;;;;;10.48;5.75;;;17.70;65.10;;;;;;5035850;28;20128;-32
2021/12/20 11:42:24;;;;;;;6.93;4.70;;;17.70;65.30;;;;;;5032906;28;20049;-24
2021/12/20 11:44:53;;;;;;;7.63;4.53;;;17.70;65.80;;;;;;5051723;28;20049;-25
2021/12/20 11:47:27;;;;;;;6.03;3.85;;;17.70;65.80;;;;;;5038233;28;20056;-26
2021/12/20 11:50:01;;;;;;;5.40;4.05;;;17.70;65.40;;;;;;5064535;28;20057;-26
2021/12/20 11:52:34;;;;;;;4.40;3.90;;;17.70;66.00;;;;;;5052901;28;20064;-28
2021/12/20 11:55:00;;;;;;;7.37;4.00;;;17.70;66.00;;;;;;5037849;28;20068;-30
2021/12/20 11:57:29;;;;;;;4.20;3.75;;;17.70;66.00;;;;;;5037048;28;20457;-24
2021/12/20 12:00:05;;;;;;;6.30;3.70;;;17.60;66.30;;;;;;5043527;28;20033;-26
2021/12/20 12:02:32;;;;;;;4.07;3.67;;;17.70;66.50;;;;;;5036317;28;20163;-26
2021/12/20 12:05:07;;;;;;;4.70;3.60;;;17.60;66.40;;;;;;5035403;28;20136;-27
2021/12/20 12:07:38;;;;;;;5.72;3.45;;;17.60;66.10;;;;;;5018016;28;20056;-23
2021/12/20 12:10:08;;;;;;;5.32;3.83;;;17.60;66.30;;;;;;4692051;28;10000068;-31
2021/12/20 12:12:39;;;;;;;5.15;3.85;;;17.60;66.60;;;;;;5032874;28;20215;-30
2021/12/20 12:15:12;;;;;;;6.03;3.45;;;17.60;67.00;;;;;;5015880;28;20057;-27
2021/12/20 12:18:10;;;;;;;3.95;3.15;;;17.60;66.90;;;;;;5033326;28;20045;-25
2021/12/20 12:20:47;;;;;;;6.85;3.40;;;17.60;66.70;;;;;;5023714;28;20042;-24
2021/12/20 12:23:20;;;;;;;6.47;3.90;;;17.70;67.30;;;;;;5036737;28;20083;-27
2021/12/20 12:26:00;;;;;;;3.72;2.92;;;17.70;66.50;;;;;;5034022;28;20044;-29
2021/12/20 12:29:05;;;;;;;4.30;3.20;;;17.70;66.70;;;;;;5029372;28;20521;-26
2021/12/20 12:31:49;;;;;;;5.72;3.50;;;17.60;66.90;;;;;;4959812;28;20041;-29
2021/12/20 12:34:14;;;;;;;5.43;3.60;;;17.60;67.10;;;;;;4980263;28;20096;-24
2021/12/20 12:36:41;;;;;;;3.80;3.50;;;17.70;67.60;;;;;;5008364;28;20057;-28
2021/12/20 12:39:24;;;;;;;4.82;3.88;;;17.70;66.70;;;;;;5032223;28;20072;-28
2021/12/20 12:41:54;;;;;;;5.82;3.75;;;17.80;66.70;;;;;;5031019;28;20140;-28
2021/12/20 12:44:28;;;;;;;4.63;3.50;;;17.70;66.80;;;;;;5028167;28;20129;-26
2021/12/20 12:46:53;;;;;;;3.70;3.40;;;17.70;66.90;;;;;;5030647;28;20136;-26
2021/12/20 12:49:19;;;;;;;3.80;3.40;;;17.80;66.80;;;;;;5030543;28;20120;-25
2021/12/20 12:51:45;;;;;;;4.03;3.72;;;17.80;66.70;;;;;;5032306;28;20064;-31
2021/12/20 12:54:10;;;;;;;4.82;3.03;;;17.80;66.60;;;;;;5038581;28;20073;-26
2021/12/20 12:56:37;;;;;;;3.95;3.40;;;17.80;66.70;;;;;;5034551;28;20044;-23
2021/12/20 12:59:11;;;;;;;5.13;3.53;;;17.80;66.60;;;;;;5038092;28;20041;-25
2021/12/20 13:01:47;;;;;;;3.45;3.15;;;17.70;66.50;;;;;;5027864;28;20056;-31
2021/12/20 13:04:12;;;;;;;6.70;3.42;;;17.90;66.70;;;;;;5032201;28;20044;-29